Time,TemperatureF,DewpointF,PressureIn,WindDirection,WindDirectionDegrees,WindSpeedMPH,WindSpeedGustMPH,Humidity,HourlyPrecipIn,Conditions,Clouds,dailyrainin,SoftwareType,DateUTC
2013-08-04 00:00:00,48.5,41.0,29.78,NE,45,0.0,0.0,75,0.00,,,-99.99,VWS V12.07,2013-08-04 05:00:00,
2013-08-04 00:04:00,48.2,41.0,29.79,NE,45,0.0,0.0,76,0.00,,,-99.99,VWS V12.07,2013-08-04 05:04:00,
2013-08-04 00:10:00,48.0,40.8,29.79,NE,45,0.0,0.0,76,0.00,,,-99.99,VWS V12.07,2013-08-04 05:10:00,
2013-08-04 00:15:00,47.8,40.6,29.79,NE,45,0.0,0.0,76,0.00,,,-99.99,VWS V12.07,2013-08-04 05:15:00,
2013-08-04 00:19:00,47.6,40.8,29.79,NE,45,0.0,0.0,77,0.00,,,-99.99,VWS V12.07,2013-08-04 05:19:00,
2013-08-04 00:25:00,47.4,40.6,29.79,NE,45,0.0,0.0,77,0.00,,,-99.99,VWS V12.07,2013-08-04 05:25:00,
2013-08-04 00:30:00,47.3,40.5,29.80,NE,45,0.0,0.0,77,0.00,,,-99.99,VWS V12.07,2013-08-04 05:30:00,
2013-08-04 00:35:00,47.1,40.3,29.79,NE,45,0.0,0.0,77,0.00,,,-99.99,VWS V12.07,2013-08-04 05:35:00,
2013-08-04 00:40:00,47.1,40.3,29.80,NE,45,0.0,0.0,77,0.00,,,-99.99,VWS V12.07,2013-08-04 05:40:00,
2013-08-04 00:44:00,47.1,40.3,29.80,NE,45,0.0,0.0,77,0.00,,,-99.99,VWS V12.07,2013-08-04 05:44:00,
2013-08-04 00:50:00,46.9,40.4,29.80,NE,45,0.0,0.0,78,0.00,,,-99.99,VWS V12.07,2013-08-04 05:50:00,
2013-08-04 00:55:00,46.7,40.2,29.80,NE,45,0.0,0.0,78,0.00,,,-99.99,VWS V12.07,2013-08-04 05:55:00,
2013-08-04 01:00:00,46.5,40.0,29.80,NE,45,0.0,0.0,78,0.00,,,-99.99,VWS V12.07,2013-08-04 06:00:00,
2013-08-04 01:05:00,46.5,40.0,29.81,NE,45,0.0,0.0,78,0.00,,,-99.99,VWS V12.07,2013-08-04 06:05:00,
2013-08-04 01:10:00,46.4,39.9,29.81,NE,45,0.0,0.0,78,0.00,,,-99.99,VWS V12.07,2013-08-04 06:10:00,
2013-08-04 01:15:00,46.2,39.7,29.81,NE,45,0.0,0.0,78,0.00,,,-99.99,VWS V12.07,2013-08-04 06:15:00,
2013-08-04 01:20:00,46.2,39.7,29.81,NE,45,0.0,0.0,78,0.00,,,-99.99,VWS V12.07,2013-08-04 06:20:00,
2013-08-04 01:25:00,46.2,40.1,29.81,NE,45,0.0,0.0,79,0.00,,,-99.99,VWS V12.07,2013-08-04 06:25:00,
2013-08-04 01:30:00,46.0,39.9,29.81,NE,45,0.0,0.0,79,0.00,,,-99.99,VWS V12.07,2013-08-04 06:30:00,
2013-08-04 01:35:00,46.0,39.9,29.81,NE,45,0.0,0.0,79,0.00,,,-99.99,VWS V12.07,2013-08-04 06:35:00,
2013-08-04 01:40:00,46.0,39.9,29.81,NE,45,0.0,0.0,79,0.00,,,-99.99,VWS V12.07,2013-08-04 06:40:00,
2013-08-04 01:44:00,45.8,39.7,29.81,NE,45,0.0,0.0,79,0.00,,,-99.99,VWS V12.07,2013-08-04 06:44:00,
2013-08-04 01:50:00,45.6,39.5,29.81,NE,45,0.0,0.0,79,0.00,,,-99.99,VWS V12.07,2013-08-04 06:50:00,
2013-08-04 01:55:00,45.6,39.5,29.81,NE,45,0.0,0.0,79,0.00,,,-99.99,VWS V12.07,2013-08-04 06:55:00,
2013-08-04 02:00:00,45.6,39.5,29.81,NE,45,0.0,0.0,79,0.00,,,-99.99,VWS V12.07,2013-08-04 07:00:00,
2013-08-04 02:04:00,45.5,39.4,29.81,NE,45,0.0,0.0,79,0.00,,,-99.99,VWS V12.07,2013-08-04 07:04:00,
2013-08-04 02:09:00,45.3,39.2,29.81,NE,45,0.0,0.0,79,0.00,,,-99.99,VWS V12.07,2013-08-04 07:09:00,
2013-08-04 02:15:00,45.3,39.5,29.81,NE,45,0.0,0.0,80,0.00,,,-99.99,VWS V12.07,2013-08-04 07:15:00,
2013-08-04 02:20:00,45.1,39.3,29.81,NE,45,0.0,0.0,80,0.00,,,-99.99,VWS V12.07,2013-08-04 07:20:00,
2013-08-04 02:25:00,45.1,39.3,29.81,NE,45,0.0,0.0,80,0.00,,,-99.99,VWS V12.07,2013-08-04 07:25:00,
2013-08-04 02:30:00,44.9,39.1,29.81,NE,45,0.0,0.0,80,0.00,,,-99.99,VWS V12.07,2013-08-04 07:30:00,
2013-08-04 02:34:00,44.9,39.1,29.81,NE,45,0.0,0.0,80,0.00,,,-99.99,VWS V12.07,2013-08-04 07:34:00,
2013-08-04 02:40:00,44.9,39.1,29.82,NE,45,0.0,0.0,80,0.00,,,-99.99,VWS V12.07,2013-08-04 07:40:00,
2013-08-04 02:45:00,44.7,38.9,29.81,NE,45,0.0,0.0,80,0.00,,,-99.99,VWS V12.07,2013-08-04 07:45:00,
2013-08-04 02:49:00,44.7,39.2,29.82,NE,45,0.0,0.0,81,0.00,,,-99.99,VWS V12.07,2013-08-04 07:49:00,
2013-08-04 02:55:00,44.6,39.1,29.82,NE,45,0.0,0.0,81,0.00,,,-99.99,VWS V12.07,2013-08-04 07:55:00,
2013-08-04 03:00:00,44.4,38.6,29.81,NE,45,0.0,0.0,80,0.00,,,-99.99,VWS V12.07,2013-08-04 08:00:00,
2013-08-04 03:05:00,44.4,38.9,29.81,NE,45,0.0,0.0,81,0.00,,,-99.99,VWS V12.07,2013-08-04 08:05:00,
2013-08-04 03:10:00,44.4,38.9,29.81,NE,45,0.0,0.0,81,0.00,,,-99.99,VWS V12.07,2013-08-04 08:10:00,
2013-08-04 03:14:00,44.2,38.8,29.82,NE,45,0.0,0.0,81,0.00,,,-99.99,VWS V12.07,2013-08-04 08:14:00,
2013-08-04 03:20:00,44.2,38.8,29.81,NE,45,0.0,0.0,81,0.00,,,-99.99,VWS V12.07,2013-08-04 08:20:00,
2013-08-04 03:25:00,44.2,38.8,29.81,NE,45,0.0,0.0,81,0.00,,,-99.99,VWS V12.07,2013-08-04 08:25:00,
2013-08-04 03:30:00,44.2,38.8,29.81,NE,45,0.0,0.0,81,0.00,,,-99.99,VWS V12.07,2013-08-04 08:30:00,
2013-08-04 03:35:00,44.2,38.8,29.80,NE,45,0.0,0.0,81,0.00,,,-99.99,VWS V12.07,2013-08-04 08:35:00,
2013-08-04 03:40:00,44.0,38.5,29.81,NE,45,0.0,0.0,81,0.00,,,-99.99,VWS V12.07,2013-08-04 08:40:00,
2013-08-04 03:45:00,44.0,38.9,29.81,NE,45,0.0,0.0,82,0.00,,,-99.99,VWS V12.07,2013-08-04 08:45:00,
2013-08-04 03:50:00,44.0,38.9,29.81,NE,45,0.0,0.0,82,0.00,,,-99.99,VWS V12.07,2013-08-04 08:50:00,
2013-08-04 03:55:00,44.0,38.9,29.81,NE,45,0.0,0.0,82,0.00,,,-99.99,VWS V12.07,2013-08-04 08:55:00,
2013-08-04 04:00:00,43.8,38.7,29.80,NE,45,0.0,0.0,82,0.00,,,-99.99,VWS V12.07,2013-08-04 09:00:00,
2013-08-04 04:04:00,43.8,38.7,29.80,NE,45,0.0,0.0,82,0.00,,,-99.99,VWS V12.07,2013-08-04 09:04:00,
2013-08-04 04:10:00,43.8,38.7,29.81,NE,45,0.0,0.0,82,0.00,,,-99.99,VWS V12.07,2013-08-04 09:10:00,
2013-08-04 04:15:00,43.8,38.7,29.81,NE,45,0.0,0.0,82,0.00,,,-99.99,VWS V12.07,2013-08-04 09:15:00,
2013-08-04 04:20:00,43.7,38.6,29.81,NE,45,0.0,0.0,82,0.00,,,-99.99,VWS V12.07,2013-08-04 09:20:00,
2013-08-04 04:25:00,43.7,38.6,29.81,NE,45,0.0,0.0,82,0.00,,,-99.99,VWS V12.07,2013-08-04 09:25:00,
2013-08-04 04:30:00,43.5,38.4,29.81,NE,45,0.0,0.0,82,0.00,,,-99.99,VWS V12.07,2013-08-04 09:30:00,
2013-08-04 04:34:00,43.5,38.4,29.81,NE,45,0.0,0.0,82,0.00,,,-99.99,VWS V12.07,2013-08-04 09:34:00,
2013-08-04 04:40:00,43.3,38.2,29.81,NE,45,0.0,0.0,82,0.00,,,-99.99,VWS V12.07,2013-08-04 09:40:00,
2013-08-04 04:45:00,43.3,38.2,29.80,NE,45,0.0,0.0,82,0.00,,,-99.99,VWS V12.07,2013-08-04 09:45:00,
2013-08-04 04:50:00,43.1,38.0,29.80,NE,45,0.0,0.0,82,0.00,,,-99.99,VWS V12.07,2013-08-04 09:50:00,
2013-08-04 04:55:00,42.9,37.8,29.80,NE,45,0.0,0.0,82,0.00,,,-99.99,VWS V12.07,2013-08-04 09:55:00,
2013-08-04 05:00:00,42.9,37.8,29.80,NE,45,0.0,0.0,82,0.00,,,-99.99,VWS V12.07,2013-08-04 10:00:00,
2013-08-04 05:05:00,42.8,37.7,29.80,NE,45,0.0,0.0,82,0.00,,,-99.99,VWS V12.07,2013-08-04 10:05:00,
2013-08-04 05:10:00,42.6,37.5,29.80,NE,45,0.0,0.0,82,0.00,,,-99.99,VWS V12.07,2013-08-04 10:10:00,
2013-08-04 05:14:00,42.6,37.8,29.80,NE,45,0.0,0.0,83,0.00,,,-99.99,VWS V12.07,2013-08-04 10:14:00,
2013-08-04 05:20:00,42.4,37.3,29.80,NE,45,0.0,0.0,82,0.00,,,-99.99,VWS V12.07,2013-08-04 10:20:00,
2013-08-04 05:25:00,42.4,37.3,29.80,NE,45,0.0,0.0,82,0.00,,,-99.99,VWS V12.07,2013-08-04 10:25:00,
2013-08-04 05:29:00,42.0,37.2,29.80,NE,45,0.0,0.0,83,0.00,,,-99.99,VWS V12.07,2013-08-04 10:29:00,
2013-08-04 05:35:00,42.0,37.2,29.80,NE,45,0.0,0.0,83,0.00,,,-99.99,VWS V12.07,2013-08-04 10:35:00,
2013-08-04 05:40:00,42.0,37.2,29.81,NE,45,0.0,0.0,83,0.00,,,-99.99,VWS V12.07,2013-08-04 10:40:00,
2013-08-04 05:45:00,41.9,37.1,29.80,NE,45,0.0,0.0,83,0.00,,,-99.99,VWS V12.07,2013-08-04 10:45:00,
2013-08-04 05:50:00,41.7,36.9,29.80,NE,45,0.0,0.0,83,0.00,,,-99.99,VWS V12.07,2013-08-04 10:50:00,
2013-08-04 05:54:00,41.7,36.9,29.80,NE,45,0.0,0.0,83,0.00,,,-99.99,VWS V12.07,2013-08-04 10:54:00,
2013-08-04 06:00:00,41.5,36.7,29.80,NE,45,0.0,0.0,83,0.00,,,-99.99,VWS V12.07,2013-08-04 11:00:00,
2013-08-04 06:05:00,41.5,36.7,29.80,NE,45,0.0,0.0,83,0.00,,,-99.99,VWS V12.07,2013-08-04 11:05:00,
2013-08-04 06:10:00,41.5,36.7,29.80,NE,45,0.0,0.0,83,0.00,,,-99.99,VWS V12.07,2013-08-04 11:10:00,
2013-08-04 06:15:00,41.3,36.5,29.79,NE,45,0.0,0.0,83,0.00,,,-99.99,VWS V12.07,2013-08-04 11:15:00,
2013-08-04 06:20:00,41.3,36.5,29.80,NE,45,0.0,0.0,83,0.00,,,-99.99,VWS V12.07,2013-08-04 11:20:00,
2013-08-04 06:25:00,41.3,36.5,29.80,NE,45,0.0,0.0,83,0.00,,,-99.99,VWS V12.07,2013-08-04 11:25:00,
2013-08-04 06:35:00,41.5,36.7,29.81,NE,45,0.0,0.0,83,0.00,,,-99.99,VWS V12.07,2013-08-04 11:35:00,
2013-08-04 06:40:00,41.7,37.2,29.80,NE,45,0.0,0.0,84,0.00,,,-99.99,VWS V12.07,2013-08-04 11:40:00,
2013-08-04 06:44:00,42.0,37.5,29.80,NE,45,0.0,0.0,84,0.00,,,-99.99,VWS V12.07,2013-08-04 11:44:00,
2013-08-04 06:50:00,42.4,37.9,29.81,NE,45,0.0,0.0,84,0.00,,,-99.99,VWS V12.07,2013-08-04 11:50:00,
2013-08-04 06:54:00,42.6,38.1,29.80,NE,45,0.0,0.0,84,0.00,,,-99.99,VWS V12.07,2013-08-04 11:54:00,
2013-08-04 07:00:00,43.1,38.6,29.81,NE,45,0.0,0.0,84,0.00,,,-99.99,VWS V12.07,2013-08-04 12:00:00,
2013-08-04 07:05:00,43.5,39.0,29.81,NE,45,0.0,0.0,84,0.00,,,-99.99,VWS V12.07,2013-08-04 12:05:00,
2013-08-04 07:10:00,44.0,39.5,29.81,NE,45,0.0,0.0,84,0.00,,,-99.99,VWS V12.07,2013-08-04 12:10:00,
2013-08-04 07:15:00,44.7,40.2,29.81,NE,45,0.0,0.0,84,0.00,,,-99.99,VWS V12.07,2013-08-04 12:15:00,
2013-08-04 07:19:00,45.1,40.6,29.82,NE,45,0.0,0.0,84,0.00,,,-99.99,VWS V12.07,2013-08-04 12:19:00,
2013-08-04 07:25:00,45.6,41.0,29.81,NE,45,0.0,0.0,84,0.00,,,-99.99,VWS V12.07,2013-08-04 12:25:00,
2013-08-04 07:30:00,46.2,41.6,29.82,NE,45,0.0,0.0,84,0.00,,,-99.99,VWS V12.07,2013-08-04 12:30:00,
2013-08-04 07:34:00,46.7,42.1,29.82,NE,45,0.0,0.0,84,0.00,,,-99.99,VWS V12.07,2013-08-04 12:34:00,
2013-08-04 07:39:00,47.1,42.8,29.82,NE,45,0.0,0.0,85,0.00,,,-99.99,VWS V12.07,2013-08-04 12:39:00,
2013-08-04 07:50:00,48.7,44.4,29.83,NE,45,0.0,0.0,85,0.00,,,-99.99,VWS V12.07,2013-08-04 12:50:00,
2013-08-04 07:55:00,49.2,44.9,29.83,NE,45,0.0,0.0,85,0.00,,,-99.99,VWS V12.07,2013-08-04 12:55:00,
2013-08-04 08:00:00,50.1,46.1,29.83,NE,45,0.0,0.0,86,0.00,,,-99.99,VWS V12.07,2013-08-04 13:00:00,
2013-08-04 08:05:00,50.7,46.7,29.83,NE,45,0.0,0.0,86,0.00,,,-99.99,VWS V12.07,2013-08-04 13:05:00,
2013-08-04 08:10:00,51.6,47.6,29.83,NE,45,0.0,0.0,86,0.00,,,-99.99,VWS V12.07,2013-08-04 13:10:00,
2013-08-04 08:15:00,52.7,48.6,29.83,NE,45,0.0,0.0,86,0.00,,,-99.99,VWS V12.07,2013-08-04 13:15:00,
2013-08-04 08:20:00,53.4,49.6,29.84,NE,45,0.0,0.0,87,0.00,,,-99.99,VWS V12.07,2013-08-04 13:20:00,
2013-08-04 08:25:00,54.1,49.7,29.84,NE,45,0.0,0.0,85,0.00,,,-99.99,VWS V12.07,2013-08-04 13:25:00,
2013-08-04 08:30:00,55.2,50.5,29.84,NE,45,0.0,0.0,84,0.00,,,-99.99,VWS V12.07,2013-08-04 13:30:00,
2013-08-04 08:35:00,55.7,50.3,29.84,NE,45,0.0,0.0,82,0.00,,,-99.99,VWS V12.07,2013-08-04 13:35:00,
2013-08-04 08:40:00,56.4,50.7,29.84,NE,45,0.0,0.0,81,0.00,,,-99.99,VWS V12.07,2013-08-04 13:40:00,
2013-08-04 08:44:00,57.0,50.6,29.84,NE,45,0.0,0.0,79,0.00,,,-99.99,VWS V12.07,2013-08-04 13:44:00,
2013-08-04 08:49:00,57.7,50.9,29.84,NE,45,0.0,0.0,78,0.00,,,-99.99,VWS V12.07,2013-08-04 13:49:00,
2013-08-04 08:55:00,58.2,51.0,29.84,NE,45,0.0,0.0,77,0.00,,,-99.99,VWS V12.07,2013-08-04 13:55:00,
2013-08-04 08:59:00,58.8,50.9,29.85,NE,45,2.4,2.4,75,0.00,,,-99.99,VWS V12.07,2013-08-04 13:59:00,
2013-08-04 09:04:00,58.8,50.5,29.85,NE,45,3.1,3.1,74,0.00,,,-99.99,VWS V12.07,2013-08-04 14:04:00,
2013-08-04 09:10:00,59.0,50.4,29.84,NE,45,0.0,3.1,73,0.00,,,-99.99,VWS V12.07,2013-08-04 14:10:00,
2013-08-04 09:15:00,59.5,50.1,29.83,NE,45,2.9,3.1,71,0.00,,,-99.99,VWS V12.07,2013-08-04 14:15:00,
2013-08-04 09:20:00,59.5,49.7,29.83,NE,45,0.0,2.9,70,0.00,,,-99.99,VWS V12.07,2013-08-04 14:20:00,
2013-08-04 09:25:00,59.7,49.9,29.83,NE,45,0.0,2.9,70,0.00,,,-99.99,VWS V12.07,2013-08-04 14:25:00,
2013-08-04 09:30:00,60.0,49.8,29.83,NE,45,0.0,2.9,69,0.00,,,-99.99,VWS V12.07,2013-08-04 14:30:00,
2013-08-04 09:35:00,60.0,49.4,29.83,NE,45,0.0,0.0,68,0.00,,,-99.99,VWS V12.07,2013-08-04 14:35:00,
2013-08-04 09:40:00,60.4,49.8,29.83,NE,45,0.0,0.0,68,0.00,,,-99.99,VWS V12.07,2013-08-04 14:40:00,
2013-08-04 09:45:00,60.6,49.2,29.83,NE,45,0.0,3.1,66,0.00,,,-99.99,VWS V12.07,2013-08-04 14:45:00,
2013-08-04 09:50:00,60.9,49.5,29.83,NE,45,0.0,4.0,66,0.00,,,-99.99,VWS V12.07,2013-08-04 14:50:00,
2013-08-04 09:55:00,60.9,49.1,29.83,NE,45,0.0,4.0,65,0.00,,,-99.99,VWS V12.07,2013-08-04 14:55:00,
2013-08-04 10:00:00,61.3,49.0,29.83,NE,45,3.5,4.0,64,0.00,,,-99.99,VWS V12.07,2013-08-04 15:00:00,
2013-08-04 10:05:00,61.5,49.2,29.83,NE,45,0.0,3.5,64,0.00,,,-99.99,VWS V12.07,2013-08-04 15:05:00,
2013-08-04 10:09:00,61.5,48.8,29.83,NE,45,0.0,3.5,63,0.00,,,-99.99,VWS V12.07,2013-08-04 15:09:00,
2013-08-04 10:15:00,61.8,48.7,29.83,NE,45,2.9,3.5,62,0.00,,,-99.99,VWS V12.07,2013-08-04 15:15:00,
2013-08-04 10:20:00,61.8,48.2,29.83,NE,45,0.0,2.9,61,0.00,,,-99.99,VWS V12.07,2013-08-04 15:20:00,
2013-08-04 10:24:00,61.8,47.8,29.83,NE,45,0.0,2.9,60,0.00,,,-99.99,VWS V12.07,2013-08-04 15:24:00,
2013-08-04 10:29:00,61.8,47.8,29.83,NE,45,0.0,2.9,60,0.00,,,-99.99,VWS V12.07,2013-08-04 15:29:00,
2013-08-04 10:34:00,62.2,48.2,29.84,NW,315,0.0,0.0,60,0.00,,,-99.99,VWS V12.07,2013-08-04 15:34:00,
2013-08-04 10:40:00,62.2,47.7,29.84,NNE,22,2.0,2.0,59,0.00,,,-99.99,VWS V12.07,2013-08-04 15:40:00,
2013-08-04 10:45:00,62.4,47.9,29.84,NNE,22,0.0,2.0,59,0.00,,,-99.99,VWS V12.07,2013-08-04 15:45:00,
2013-08-04 10:50:00,62.4,47.9,29.84,NNE,22,0.0,0.0,59,0.00,,,-99.99,VWS V12.07,2013-08-04 15:50:00,
2013-08-04 10:54:00,62.4,47.9,29.84,NNE,22,0.0,0.0,59,0.00,,,-99.99,VWS V12.07,2013-08-04 15:54:00,
2013-08-04 11:00:00,62.7,48.2,29.84,NNE,22,0.0,0.0,59,0.00,,,-99.99,VWS V12.07,2013-08-04 16:00:00,
2013-08-04 11:05:00,63.1,48.6,29.84,SW,225,0.0,0.0,59,0.00,,,-99.99,VWS V12.07,2013-08-04 16:05:00,
2013-08-04 11:10:00,63.1,48.1,29.84,SW,225,0.0,0.0,58,0.00,,,-99.99,VWS V12.07,2013-08-04 16:10:00,
2013-08-04 11:15:00,63.5,48.5,29.84,SW,225,0.0,1.5,58,0.00,,,-99.99,VWS V12.07,2013-08-04 16:15:00,
2013-08-04 11:19:00,63.8,48.8,29.83,SW,225,0.0,0.0,58,0.00,,,-99.99,VWS V12.07,2013-08-04 16:19:00,
2013-08-04 11:25:00,64.0,48.9,29.83,SW,225,0.0,0.0,58,0.00,,,-99.99,VWS V12.07,2013-08-04 16:25:00,
2013-08-04 11:30:00,64.7,49.1,29.83,NE,45,0.0,2.4,57,0.00,,,-99.99,VWS V12.07,2013-08-04 16:30:00,
2013-08-04 11:35:00,64.9,48.8,29.83,NE,45,0.0,0.0,56,0.00,,,-99.99,VWS V12.07,2013-08-04 16:35:00,
2013-08-04 11:40:00,64.7,48.2,29.83,NE,45,0.0,0.0,55,0.00,,,-99.99,VWS V12.07,2013-08-04 16:40:00,
2013-08-04 11:50:00,64.7,48.7,29.83,NE,45,0.0,0.0,56,0.00,,,-99.99,VWS V12.07,2013-08-04 16:50:00,
2013-08-04 11:55:00,64.9,48.8,29.83,NE,45,0.0,0.0,56,0.00,,,-99.99,VWS V12.07,2013-08-04 16:55:00,
2013-08-04 12:00:00,65.1,48.5,29.82,NE,45,0.0,5.5,55,0.00,,,-99.99,VWS V12.07,2013-08-04 17:00:00,
2013-08-04 12:05:00,65.3,48.2,29.82,NE,45,0.0,0.0,54,0.00,,,-99.99,VWS V12.07,2013-08-04 17:05:00,
2013-08-04 12:10:00,65.3,48.2,29.82,NE,45,0.0,0.0,54,0.00,,,-99.99,VWS V12.07,2013-08-04 17:10:00,
2013-08-04 12:15:00,65.3,48.7,29.82,NE,45,0.0,0.0,55,0.00,,,-99.99,VWS V12.07,2013-08-04 17:15:00,
2013-08-04 12:20:00,65.3,48.2,29.82,NE,45,0.0,0.0,54,0.00,,,-99.99,VWS V12.07,2013-08-04 17:20:00,
2013-08-04 12:25:00,65.3,48.2,29.81,NE,45,0.0,0.0,54,0.00,,,-99.99,VWS V12.07,2013-08-04 17:25:00,
2013-08-04 12:30:00,65.4,47.8,29.81,NE,45,0.0,0.0,53,0.00,,,-99.99,VWS V12.07,2013-08-04 17:30:00,
2013-08-04 12:35:00,65.4,47.3,29.81,NE,45,0.0,0.0,52,0.00,,,-99.99,VWS V12.07,2013-08-04 17:35:00,
2013-08-04 12:40:00,65.3,47.8,29.81,NE,45,0.0,0.0,53,0.00,,,-99.99,VWS V12.07,2013-08-04 17:40:00,
2013-08-04 12:45:00,65.3,47.2,29.81,NE,45,0.0,3.3,52,0.00,,,-99.99,VWS V12.07,2013-08-04 17:45:00,
2013-08-04 12:50:00,65.3,47.8,29.81,NE,45,0.0,0.0,53,0.00,,,-99.99,VWS V12.07,2013-08-04 17:50:00,
2013-08-04 12:55:00,65.4,47.3,29.81,NE,45,2.4,2.4,52,0.00,,,-99.99,VWS V12.07,2013-08-04 17:55:00,
2013-08-04 13:00:00,65.3,47.2,29.80,NE,45,0.0,2.4,52,0.00,,,-99.99,VWS V12.07,2013-08-04 18:00:00,
2013-08-04 13:04:00,65.4,47.3,29.81,NE,45,0.0,0.0,52,0.00,,,-99.99,VWS V12.07,2013-08-04 18:04:00,
2013-08-04 13:10:00,65.6,48.0,29.80,NE,45,0.0,0.0,53,0.00,,,-99.99,VWS V12.07,2013-08-04 18:10:00,
2013-08-04 13:15:00,66.0,47.9,29.80,NE,45,0.0,0.0,52,0.00,,,-99.99,VWS V12.07,2013-08-04 18:15:00,
2013-08-04 13:19:00,66.0,47.9,29.80,South,180,0.0,0.0,52,0.00,,,-99.99,VWS V12.07,2013-08-04 18:19:00,
2013-08-04 13:24:00,66.3,48.2,29.80,South,180,0.0,0.0,52,0.00,,,-99.99,VWS V12.07,2013-08-04 18:24:00,
2013-08-04 13:30:00,66.9,48.7,29.80,South,180,0.0,0.0,52,0.00,,,-99.99,VWS V12.07,2013-08-04 18:30:00,
2013-08-04 13:40:00,66.9,48.2,29.80,NNE,22,0.0,0.0,51,0.00,,,-99.99,VWS V12.07,2013-08-04 18:40:00,
2013-08-04 13:45:00,66.7,48.0,29.80,NE,45,0.0,0.0,51,0.00,,,-99.99,VWS V12.07,2013-08-04 18:45:00,
2013-08-04 13:50:00,66.3,47.7,29.80,NE,45,0.0,0.0,51,0.00,,,-99.99,VWS V12.07,2013-08-04 18:50:00,
2013-08-04 13:55:00,66.2,47.6,29.79,NE,45,0.0,0.0,51,0.00,,,-99.99,VWS V12.07,2013-08-04 18:55:00,
2013-08-04 14:00:00,66.0,47.4,29.79,NE,45,0.0,0.0,51,0.00,,,-99.99,VWS V12.07,2013-08-04 19:00:00,
2013-08-04 14:05:00,66.2,47.6,29.80,NE,45,0.0,5.8,51,0.00,,,-99.99,VWS V12.07,2013-08-04 19:05:00,
2013-08-04 14:09:00,66.3,47.7,29.80,South,180,0.0,5.8,51,0.00,,,-99.99,VWS V12.07,2013-08-04 19:09:00,
2013-08-04 14:15:00,66.3,48.2,29.80,NE,45,0.0,5.8,52,0.00,,,-99.99,VWS V12.07,2013-08-04 19:15:00,
2013-08-04 14:24:00,66.3,47.7,29.80,NNE,22,0.0,0.0,51,0.00,,,-99.99,VWS V12.07,2013-08-04 19:24:00,
2013-08-04 14:30:00,66.0,47.9,29.79,NNE,22,0.0,0.0,52,0.00,,,-99.99,VWS V12.07,2013-08-04 19:30:00,
2013-08-04 14:35:00,66.0,47.9,29.79,NNE,22,0.0,0.0,52,0.00,,,-99.99,VWS V12.07,2013-08-04 19:35:00,
2013-08-04 14:40:00,65.8,47.7,29.79,NNE,22,0.0,0.0,52,0.00,,,-99.99,VWS V12.07,2013-08-04 19:40:00,
2013-08-04 14:45:00,65.8,47.7,29.79,NNE,22,0.0,0.0,52,0.00,,,-99.99,VWS V12.07,2013-08-04 19:45:00,
2013-08-04 14:50:00,65.6,47.5,29.79,NE,45,0.0,0.0,52,0.00,,,-99.99,VWS V12.07,2013-08-04 19:50:00,
2013-08-04 14:55:00,65.8,47.7,29.78,NE,45,0.0,0.0,52,0.00,,,-99.99,VWS V12.07,2013-08-04 19:55:00,
2013-08-04 14:59:00,65.8,47.7,29.79,NE,45,0.0,0.0,52,0.00,,,-99.99,VWS V12.07,2013-08-04 19:59:00,
2013-08-04 15:05:00,66.0,47.9,29.78,NE,45,0.0,0.0,52,0.00,,,-99.99,VWS V12.07,2013-08-04 20:05:00,
2013-08-04 15:10:00,66.2,48.1,29.78,SW,225,0.0,0.0,52,0.00,,,-99.99,VWS V12.07,2013-08-04 20:10:00,
2013-08-04 15:15:00,66.3,48.2,29.78,NE,45,0.0,0.0,52,0.00,,,-99.99,VWS V12.07,2013-08-04 20:15:00,
2013-08-04 15:19:00,66.5,48.3,29.78,NE,45,0.0,0.0,52,0.00,,,-99.99,VWS V12.07,2013-08-04 20:19:00,
2013-08-04 15:25:00,66.5,47.8,29.78,WSW,248,0.0,0.0,51,0.00,,,-99.99,VWS V12.07,2013-08-04 20:25:00,
2013-08-04 15:30:00,66.7,48.0,29.78,WSW,248,0.0,0.0,51,0.00,,,-99.99,VWS V12.07,2013-08-04 20:30:00,
2013-08-04 15:35:00,66.5,47.8,29.78,West,270,0.0,0.0,51,0.00,,,-99.99,VWS V12.07,2013-08-04 20:35:00,
2013-08-04 15:39:00,66.5,47.8,29.77,West,270,0.0,0.0,51,0.00,,,-99.99,VWS V12.07,2013-08-04 20:39:00,
2013-08-04 15:44:00,66.3,47.7,29.78,West,270,0.0,0.0,51,0.00,,,-99.99,VWS V12.07,2013-08-04 20:44:00,
2013-08-04 15:50:00,66.3,47.7,29.77,WSW,248,3.3,3.3,51,0.00,,,-99.99,VWS V12.07,2013-08-04 20:50:00,
2013-08-04 15:54:00,66.5,47.8,29.77,WSW,248,0.0,3.3,51,0.00,,,-99.99,VWS V12.07,2013-08-04 20:54:00,
2013-08-04 16:00:00,66.5,47.8,29.77,WSW,248,0.0,3.3,51,0.00,,,-99.99,VWS V12.07,2013-08-04 21:00:00,
2013-08-04 16:05:00,66.3,47.7,29.77,WSW,248,0.0,0.0,51,0.00,,,-99.99,VWS V12.07,2013-08-04 21:05:00,
2013-08-04 16:10:00,66.5,47.8,29.76,WSW,248,0.0,0.0,51,0.00,,,-99.99,VWS V12.07,2013-08-04 21:10:00,
2013-08-04 16:15:00,66.7,48.0,29.77,WSW,248,0.0,0.0,51,0.00,,,-99.99,VWS V12.07,2013-08-04 21:15:00,
2013-08-04 16:20:00,67.1,48.4,29.76,WSW,248,0.0,0.0,51,0.00,,,-99.99,VWS V12.07,2013-08-04 21:20:00,
2013-08-04 16:25:00,67.6,48.8,29.76,NW,315,0.0,0.0,51,0.00,,,-99.99,VWS V12.07,2013-08-04 21:25:00,
2013-08-04 16:30:00,67.8,48.5,29.76,WNW,292,0.0,0.0,50,0.00,,,-99.99,VWS V12.07,2013-08-04 21:30:00,
2013-08-04 16:34:00,68.1,48.8,29.76,SW,225,5.1,5.1,50,0.00,,,-99.99,VWS V12.07,2013-08-04 21:34:00,
2013-08-04 16:39:00,68.3,48.4,29.76,SW,225,0.0,5.1,49,0.00,,,-99.99,VWS V12.07,2013-08-04 21:39:00,
2013-08-04 16:45:00,68.5,48.6,29.76,SW,225,0.0,5.1,49,0.00,,,-99.99,VWS V12.07,2013-08-04 21:45:00,
2013-08-04 16:50:00,68.7,48.8,29.75,SW,225,0.0,0.0,49,0.00,,,-99.99,VWS V12.07,2013-08-04 21:50:00,
2013-08-04 16:54:00,68.7,48.8,29.75,SW,225,0.0,0.0,49,0.00,,,-99.99,VWS V12.07,2013-08-04 21:54:00,
2013-08-04 17:00:00,68.9,49.0,29.75,SW,225,0.0,0.0,49,0.00,,,-99.99,VWS V12.07,2013-08-04 22:00:00,
2013-08-04 17:04:00,69.0,48.5,29.75,SW,225,1.3,1.3,48,0.00,,,-99.99,VWS V12.07,2013-08-04 22:04:00,
2013-08-04 17:10:00,69.4,48.9,29.75,WSW,248,0.0,4.9,48,0.00,,,-99.99,VWS V12.07,2013-08-04 22:10:00,
2013-08-04 17:15:00,69.4,48.9,29.75,SSW,202,0.0,4.9,48,0.00,,,-99.99,VWS V12.07,2013-08-04 22:15:00,
2013-08-04 17:20:00,69.0,48.5,29.75,SW,225,0.0,0.0,48,0.00,,,-99.99,VWS V12.07,2013-08-04 22:20:00,
2013-08-04 17:25:00,68.9,48.4,29.75,SW,225,1.1,1.1,48,0.00,,,-99.99,VWS V12.07,2013-08-04 22:25:00,
2013-08-04 17:30:00,69.2,48.7,29.75,SSW,202,0.0,1.3,48,0.00,,,-99.99,VWS V12.07,2013-08-04 22:30:00,
2013-08-04 17:35:00,69.6,49.1,29.75,SW,225,0.0,0.0,48,0.00,,,-99.99,VWS V12.07,2013-08-04 22:35:00,
2013-08-04 17:39:00,70.3,49.7,29.75,SW,225,0.0,0.0,48,0.00,,,-99.99,VWS V12.07,2013-08-04 22:39:00,
2013-08-04 17:45:00,70.7,50.1,29.74,SW,225,0.0,0.0,48,0.00,,,-99.99,VWS V12.07,2013-08-04 22:45:00,
2013-08-04 17:49:00,70.8,49.6,29.74,SW,225,0.0,0.0,47,0.00,,,-99.99,VWS V12.07,2013-08-04 22:49:00,
2013-08-04 17:55:00,70.8,49.6,29.74,SW,225,0.0,0.0,47,0.00,,,-99.99,VWS V12.07,2013-08-04 22:55:00,
2013-08-04 18:00:00,70.7,49.5,29.74,SW,225,0.0,0.0,47,0.00,,,-99.99,VWS V12.07,2013-08-04 23:00:00,
2013-08-04 18:04:00,70.7,50.1,29.74,SW,225,0.0,0.0,48,0.00,,,-99.99,VWS V12.07,2013-08-04 23:04:00,
2013-08-04 18:10:00,71.2,50.0,29.74,SW,225,0.0,0.0,47,0.00,,,-99.99,VWS V12.07,2013-08-04 23:10:00,
2013-08-04 18:14:00,71.4,50.1,29.73,SW,225,0.0,0.0,47,0.00,,,-99.99,VWS V12.07,2013-08-04 23:14:00,
2013-08-04 18:24:00,70.8,50.2,29.73,SW,225,0.0,0.0,48,0.00,,,-99.99,VWS V12.07,2013-08-04 23:24:00,
2013-08-04 18:35:00,70.7,50.1,29.73,SW,225,0.0,0.0,48,0.00,,,-99.99,VWS V12.07,2013-08-04 23:35:00,
2013-08-04 18:40:00,70.7,50.6,29.73,SW,225,0.0,0.0,49,0.00,,,-99.99,VWS V12.07,2013-08-04 23:40:00,
2013-08-04 18:45:00,70.8,50.2,29.73,SW,225,0.0,0.0,48,0.00,,,-99.99,VWS V12.07,2013-08-04 23:45:00,
2013-08-04 18:50:00,70.8,50.2,29.73,SW,225,0.0,0.0,48,0.00,,,-99.99,VWS V12.07,2013-08-04 23:50:00,
2013-08-04 18:55:00,70.8,50.7,29.73,SW,225,0.0,0.0,49,0.00,,,-99.99,VWS V12.07,2013-08-04 23:55:00,
2013-08-04 19:00:00,71.2,51.1,29.73,SW,225,0.0,0.0,49,0.00,,,-99.99,VWS V12.07,2013-08-05 00:00:00,
2013-08-04 19:05:00,71.2,50.5,29.72,SW,225,0.0,0.0,48,0.00,,,-99.99,VWS V12.07,2013-08-05 00:05:00,
2013-08-04 19:10:00,70.8,50.2,29.72,SW,225,0.0,0.0,48,0.00,,,-99.99,VWS V12.07,2013-08-05 00:10:00,
2013-08-04 19:14:00,70.5,50.4,29.72,SW,225,0.0,0.0,49,0.00,,,-99.99,VWS V12.07,2013-08-05 00:14:00,
2013-08-04 19:20:00,70.3,50.3,29.72,SW,225,0.0,0.0,49,0.00,,,-99.99,VWS V12.07,2013-08-05 00:20:00,
2013-08-04 19:24:00,69.4,50.0,29.72,SW,225,0.0,0.0,50,0.00,,,-99.99,VWS V12.07,2013-08-05 00:24:00,
2013-08-04 19:30:00,68.7,49.3,29.72,SW,225,0.0,0.0,50,0.00,,,-99.99,VWS V12.07,2013-08-05 00:30:00,
2013-08-04 19:35:00,67.8,49.0,29.72,SW,225,0.0,0.0,51,0.00,,,-99.99,VWS V12.07,2013-08-05 00:35:00,
2013-08-04 19:40:00,66.7,48.5,29.72,SW,225,0.0,0.0,52,0.00,,,-99.99,VWS V12.07,2013-08-05 00:40:00,
2013-08-04 19:44:00,66.0,48.4,29.72,SW,225,0.0,0.0,53,0.00,,,-99.99,VWS V12.07,2013-08-05 00:44:00,
2013-08-04 19:49:00,65.3,48.2,29.72,SW,225,0.0,0.0,54,0.00,,,-99.99,VWS V12.07,2013-08-05 00:49:00,
2013-08-04 19:55:00,64.2,47.7,29.72,SW,225,0.0,0.0,55,0.00,,,-99.99,VWS V12.07,2013-08-05 00:55:00,
2013-08-04 19:59:00,63.6,47.6,29.71,SW,225,0.0,0.0,56,0.00,,,-99.99,VWS V12.07,2013-08-05 00:59:00,
2013-08-04 20:05:00,63.1,47.2,29.71,SW,225,0.0,0.0,56,0.00,,,-99.99,VWS V12.07,2013-08-05 01:05:00,
2013-08-04 20:10:00,62.2,46.8,29.71,SW,225,0.0,0.0,57,0.00,,,-99.99,VWS V12.07,2013-08-05 01:10:00,
2013-08-04 20:15:00,61.5,46.6,29.71,SW,225,0.0,0.0,58,0.00,,,-99.99,VWS V12.07,2013-08-05 01:15:00,
2013-08-04 20:20:00,60.9,46.5,29.71,SW,225,0.0,0.0,59,0.00,,,-99.99,VWS V12.07,2013-08-05 01:20:00,
2013-08-04 20:25:00,60.4,46.5,29.71,SW,225,0.0,0.0,60,0.00,,,-99.99,VWS V12.07,2013-08-05 01:25:00,
2013-08-04 20:30:00,59.7,45.8,29.70,SW,225,0.0,0.0,60,0.00,,,-99.99,VWS V12.07,2013-08-05 01:30:00,
2013-08-04 20:35:00,59.3,45.9,29.70,SW,225,0.0,0.0,61,0.00,,,-99.99,VWS V12.07,2013-08-05 01:35:00,
2013-08-04 20:40:00,58.8,45.8,29.71,SW,225,0.0,0.0,62,0.00,,,-99.99,VWS V12.07,2013-08-05 01:40:00,
2013-08-04 20:45:00,58.2,45.3,29.71,SW,225,0.0,0.0,62,0.00,,,-99.99,VWS V12.07,2013-08-05 01:45:00,
2013-08-04 20:50:00,57.9,45.4,29.71,SW,225,0.0,0.0,63,0.00,,,-99.99,VWS V12.07,2013-08-05 01:50:00,
2013-08-04 20:55:00,57.3,44.8,29.71,SW,225,0.0,0.0,63,0.00,,,-99.99,VWS V12.07,2013-08-05 01:55:00,
2013-08-04 20:59:00,56.8,44.8,29.71,SW,225,0.0,0.0,64,0.00,,,-99.99,VWS V12.07,2013-08-05 01:59:00,
2013-08-04 21:05:00,56.4,44.4,29.71,SW,225,0.0,0.0,64,0.00,,,-99.99,VWS V12.07,2013-08-05 02:05:00,
2013-08-04 21:10:00,56.1,44.5,29.71,SW,225,0.0,0.0,65,0.00,,,-99.99,VWS V12.07,2013-08-05 02:10:00,
2013-08-04 21:15:00,55.9,44.3,29.71,SW,225,0.0,0.0,65,0.00,,,-99.99,VWS V12.07,2013-08-05 02:15:00,
2013-08-04 21:20:00,55.5,44.3,29.71,SW,225,0.0,0.0,66,0.00,,,-99.99,VWS V12.07,2013-08-05 02:20:00,
2013-08-04 21:25:00,55.2,44.0,29.71,SW,225,0.0,0.0,66,0.00,,,-99.99,VWS V12.07,2013-08-05 02:25:00,
2013-08-04 21:35:00,54.6,43.5,29.71,SW,225,0.0,0.0,66,0.00,,,-99.99,VWS V12.07,2013-08-05 02:35:00,
2013-08-04 21:40:00,54.5,43.8,29.71,SW,225,0.0,0.0,67,0.00,,,-99.99,VWS V12.07,2013-08-05 02:40:00,
2013-08-04 21:45:00,54.3,43.6,29.71,SW,225,0.0,0.0,67,0.00,,,-99.99,VWS V12.07,2013-08-05 02:45:00,
2013-08-04 21:49:00,54.1,43.8,29.71,SW,225,0.0,0.0,68,0.00,,,-99.99,VWS V12.07,2013-08-05 02:49:00,
2013-08-04 21:55:00,53.7,43.4,29.71,SW,225,0.0,0.0,68,0.00,,,-99.99,VWS V12.07,2013-08-05 02:55:00,
2013-08-04 22:00:00,53.7,43.4,29.71,SW,225,0.0,0.0,68,0.00,,,-99.99,VWS V12.07,2013-08-05 03:00:00,
2013-08-04 22:05:00,53.4,43.1,29.71,SW,225,0.0,0.0,68,0.00,,,-99.99,VWS V12.07,2013-08-05 03:05:00,
2013-08-04 22:09:00,53.2,43.3,29.71,SW,225,0.0,0.0,69,0.00,,,-99.99,VWS V12.07,2013-08-05 03:09:00,
2013-08-04 22:15:00,53.2,43.3,29.70,SW,225,0.0,0.0,69,0.00,,,-99.99,VWS V12.07,2013-08-05 03:15:00,
2013-08-04 22:20:00,52.8,42.9,29.70,SW,225,0.0,0.0,69,0.00,,,-99.99,VWS V12.07,2013-08-05 03:20:00,
2013-08-04 22:24:00,52.7,43.2,29.70,SW,225,0.0,0.0,70,0.00,,,-99.99,VWS V12.07,2013-08-05 03:24:00,
2013-08-04 22:30:00,52.5,43.0,29.70,SW,225,0.0,0.0,70,0.00,,,-99.99,VWS V12.07,2013-08-05 03:30:00,
2013-08-04 22:35:00,52.3,42.8,29.70,SW,225,0.0,0.0,70,0.00,,,-99.99,VWS V12.07,2013-08-05 03:35:00,
2013-08-04 22:39:00,52.1,42.6,29.70,SW,225,0.0,0.0,70,0.00,,,-99.99,VWS V12.07,2013-08-05 03:39:00,
2013-08-04 22:45:00,51.9,42.8,29.70,SW,225,0.0,0.0,71,0.00,,,-99.99,VWS V12.07,2013-08-05 03:45:00,
2013-08-04 22:49:00,51.9,42.8,29.70,SW,225,0.0,0.0,71,0.00,,,-99.99,VWS V12.07,2013-08-05 03:49:00,
2013-08-04 22:55:00,51.6,42.5,29.70,SW,225,0.0,0.0,71,0.00,,,-99.99,VWS V12.07,2013-08-05 03:55:00,
2013-08-04 22:59:00,51.6,42.5,29.70,SW,225,0.0,0.0,71,0.00,,,-99.99,VWS V12.07,2013-08-05 03:59:00,
2013-08-04 23:05:00,51.6,42.9,29.70,SW,225,0.0,0.0,72,0.00,,,-99.99,VWS V12.07,2013-08-05 04:05:00,
2013-08-04 23:09:00,51.4,42.7,29.70,SW,225,0.0,0.0,72,0.00,,,-99.99,VWS V12.07,2013-08-05 04:09:00,
2013-08-04 23:15:00,51.2,42.5,29.70,SW,225,0.0,0.0,72,0.00,,,-99.99,VWS V12.07,2013-08-05 04:15:00,
2013-08-04 23:19:00,51.0,42.3,29.70,SW,225,0.0,0.0,72,0.00,,,-99.99,VWS V12.07,2013-08-05 04:19:00,
2013-08-04 23:25:00,50.9,42.2,29.69,SW,225,0.0,0.0,72,0.00,,,-99.99,VWS V12.07,2013-08-05 04:25:00,
2013-08-04 23:30:00,50.7,42.4,29.69,SW,225,0.0,0.0,73,0.00,,,-99.99,VWS V12.07,2013-08-05 04:30:00,
2013-08-04 23:35:00,50.7,42.4,29.69,SW,225,0.0,0.0,73,0.00,,,-99.99,VWS V12.07,2013-08-05 04:35:00,
2013-08-04 23:39:00,50.5,42.2,29.70,SW,225,0.0,0.0,73,0.00,,,-99.99,VWS V12.07,2013-08-05 04:39:00,
2013-08-04 23:45:00,50.3,42.0,29.69,SW,225,0.0,0.0,73,0.00,,,-99.99,VWS V12.07,2013-08-05 04:45:00,
2013-08-04 23:50:00,50.3,42.3,29.69,SW,225,0.0,0.0,74,0.00,,,-99.99,VWS V12.07,2013-08-05 04:50:00,
2013-08-04 23:55:00,50.1,42.2,29.70,SW,225,0.0,0.0,74,0.00,,,-99.99,VWS V12.07,2013-08-05 04:55:00,